Alamosa, CO (81101)

3:16 AM MDT on April 26, 2017 (GMT -0600)
Alamosa | | Change Station

Elev 7543 ft 37.46 °N, 105.86 °W | Updated 26 seconds ago

Clear
Clear
31.2 °F
Feels Like 25 °F
N
6.0
Wind Variable Wind from NNE

Today
High -- | Low -- °F
--% Chance of Precip.
Yesterday
High -- | Low -- °F
Precip. -- in
Pressure 29.76 in
Visibility 10.0 miles
Clouds Clear
Windchill 25 °F
Dew Point 27 °F
Humidity 86%
Rainfall 0.00 in
Snow Depth Not available.
6:13 AM 7:49 PM
Waning Crescent, 0% visible
METAR KALS 260852Z AUTO 36008KT 10SM CLR 01/M03 A2981 RMK AO2 SLP078 T00061028 51006
Pressure 29.76 in
Visibility 10.0 miles
Clouds Clear
Windchill 25 °F
Dew Point 27 °F
Humidity 86%
Rainfall 0.00 in
Snow Depth Not available.
6:13 AM 7:49 PM
Waning Crescent, 0% visible
METAR KALS 260852Z AUTO 36008KT 10SM CLR 01/M03 A2981 RMK AO2 SLP078 T00061028 51006

Get Severe Weather Alerts

Thanks for signing up!

Be on the lookout for a verification email in your inbox.

You'll start receiving the daily forecast at 8 AM.

×

10-Day Weather Forecast

Almanac

Astronomy

Apr. 26, 2017 Rise Set
Actual Time
Civil Twilight
Nautical Twilight
Astronomical Twilight
Moon
Length of Visible Light
Length of Day
Tomorrow will be .
, % of the Moon is Illuminated

Today's Extremes

State Highs State Lows

Community

WunderPhotos

WunderBlog® & News

Nearby

Air Quality

  Air Quality AQ Index Pollutant
Not available.

Snow Depth

Station Depth Elevation

Earthquake Activity

City Distance Mag. Time & Date
Minimum magnitude displayed is 2.5.

Coastal Water Temperatures

Place Temperature

Stations

Nearby Weather Stations

Station Location Temp. Windchill Dew Point Humidity Wind Precip. Elev Updated Type
                   

Watches & Warnings

There are currently no watches in effect.